createdAt,value
2018-08-07T00:00:18.558Z,8.40
2018-08-07T00:02:49.322Z,5.27
2018-08-07T00:05:18.773Z,5.60
2018-08-07T00:07:49.893Z,5.53
2018-08-07T00:10:20.225Z,6.17
2018-08-07T00:12:49.640Z,7.53
2018-08-07T00:15:19.313Z,6.53
2018-08-07T00:17:48.601Z,6.67
2018-08-07T00:20:18.997Z,7.73
2018-08-07T00:22:48.121Z,9.30
2018-08-07T00:25:17.341Z,5.60
2018-08-07T00:27:47.488Z,6.10
2018-08-07T00:30:17.355Z,6.77
2018-08-07T00:32:46.648Z,5.97
2018-08-07T00:35:17.808Z,6.57
2018-08-07T00:37:48.280Z,6.03
2018-08-07T00:40:18.450Z,5.93
2018-08-07T00:42:51.026Z,7.70
2018-08-07T00:45:21.254Z,7.40
2018-08-07T00:47:50.954Z,5.83
2018-08-07T00:50:22.286Z,5.70
2018-08-07T00:52:52.215Z,6.67
2018-08-07T00:55:21.913Z,6.13
2018-08-07T00:57:51.883Z,6.13
2018-08-07T01:00:21.828Z,6.37
2018-08-07T01:02:50.997Z,6.00
2018-08-07T01:05:20.179Z,5.43
2018-08-07T01:07:49.487Z,6.73
2018-08-07T01:10:19.241Z,5.97
2018-08-07T01:12:48.362Z,7.70
2018-08-07T01:15:20.193Z,6.77
2018-08-07T01:17:50.193Z,6.13
2018-08-07T01:20:21.449Z,6.93
2018-08-07T01:22:50.193Z,6.67
2018-08-07T01:25:21.688Z,8.20
2018-08-07T01:27:52.381Z,6.03
2018-08-07T01:30:23.879Z,7.63
2018-08-07T01:32:53.631Z,6.83
2018-08-07T01:35:23.597Z,7.47
2018-08-07T01:37:52.833Z,6.40
2018-08-07T01:40:22.000Z,7.40
2018-08-07T01:42:51.239Z,6.73
2018-08-07T01:45:20.453Z,6.23
2018-08-07T01:47:49.727Z,6.50
2018-08-07T01:50:19.031Z,6.20
2018-08-07T01:52:48.316Z,7.37
2018-08-07T01:55:20.467Z,6.17
2018-08-07T01:57:49.615Z,6.43
2018-08-07T02:00:18.769Z,8.67
2018-08-07T02:02:47.818Z,6.33
2018-08-07T02:05:17.159Z,6.83
2018-08-07T02:07:46.454Z,8.13
2018-08-07T02:10:17.223Z,7.87
2018-08-07T02:12:46.439Z,6.80
2018-08-07T02:15:16.141Z,7.37
2018-08-07T02:17:44.991Z,9.40
2018-08-07T02:20:14.520Z,7.23
2018-08-07T02:22:44.815Z,6.70
2018-08-07T02:25:15.787Z,7.27
2018-08-07T02:27:45.568Z,7.53
2018-08-07T02:30:15.624Z,7.40
2018-08-07T02:32:45.272Z,7.40
2018-08-07T02:35:15.662Z,6.77
2018-08-07T02:37:45.883Z,7.07
2018-08-07T02:40:15.788Z,9.33
2018-08-07T02:42:45.159Z,7.07
2018-08-07T02:45:16.461Z,7.30
2018-08-07T02:47:46.586Z,9.50
2018-08-07T02:50:20.569Z,7.40
2018-08-07T02:52:49.956Z,8.23
2018-08-07T02:55:18.765Z,7.20
2018-08-07T02:57:47.937Z,7.60
2018-08-07T03:00:21.482Z,7.13
2018-08-07T03:02:50.805Z,6.80
2018-08-07T03:05:21.022Z,7.23
2018-08-07T03:07:51.375Z,7.63
2018-08-07T03:10:21.435Z,8.10
2018-08-07T03:12:50.828Z,8.00
2018-08-07T03:15:21.219Z,7.90
2018-08-07T03:17:50.659Z,7.80
2018-08-07T03:20:19.656Z,8.10
2018-08-07T03:22:48.860Z,7.10
2018-08-07T03:25:17.987Z,8.93
2018-08-07T03:27:50.189Z,7.57
2018-08-07T03:30:20.652Z,8.43
2018-08-07T03:32:49.810Z,9.40
2018-08-07T03:35:18.902Z,9.20
2018-08-07T03:37:48.296Z,8.10
2018-08-07T03:40:18.740Z,8.60
2018-08-07T03:42:48.646Z,8.30
2018-08-07T03:45:19.290Z,8.33
2018-08-07T03:47:49.540Z,9.87
2018-08-07T03:50:18.799Z,9.13
2018-08-07T03:52:47.928Z,8.20
2018-08-07T03:55:18.361Z,9.10
2018-08-07T03:57:48.257Z,9.03
2018-08-07T04:00:20.744Z,8.67
2018-08-07T04:02:50.315Z,8.70
2018-08-07T04:05:19.689Z,8.97
2018-08-07T04:07:49.579Z,8.40
2018-08-07T04:10:19.780Z,8.63
2018-08-07T04:12:49.184Z,11.83
2018-08-07T04:15:19.123Z,9.13
2018-08-07T04:17:48.526Z,8.73
2018-08-07T04:20:18.815Z,8.60
2018-08-07T04:22:48.738Z,8.53
2018-08-07T04:25:18.066Z,8.37
2018-08-07T04:27:47.295Z,8.63
2018-08-07T04:30:18.572Z,9.57
2018-08-07T04:32:47.980Z,10.70
2018-08-07T04:35:17.931Z,8.53
2018-08-07T04:37:47.500Z,8.73
2018-08-07T04:40:17.431Z,9.23
2018-08-07T04:42:46.713Z,8.97
2018-08-07T04:45:17.186Z,8.80
2018-08-07T04:47:47.185Z,9.33
2018-08-07T04:50:16.541Z,9.73
2018-08-07T04:52:46.453Z,13.10
2018-08-07T04:55:15.803Z,11.13
2018-08-07T04:57:45.074Z,12.80
2018-08-07T05:00:17.077Z,11.03
2018-08-07T05:02:47.057Z,9.47
2018-08-07T05:05:16.374Z,10.33
2018-08-07T05:07:45.863Z,10.77
2018-08-07T05:10:16.621Z,9.53
2018-08-07T05:12:46.541Z,9.63
2018-08-07T05:15:15.945Z,11.83
2018-08-07T05:17:47.476Z,8.97
2018-08-07T05:20:16.795Z,8.50
2018-08-07T05:22:46.390Z,9.87
2018-08-07T05:25:16.056Z,11.60
2018-08-07T05:27:45.170Z,14.60
2018-08-07T05:30:16.156Z,9.43
2018-08-07T05:32:45.565Z,9.57
2018-08-07T05:35:15.753Z,9.23
2018-08-07T05:37:45.614Z,9.83
2018-08-07T05:40:14.785Z,9.43
2018-08-07T05:42:44.048Z,13.03
2018-08-07T05:45:15.095Z,9.93
2018-08-07T05:47:44.405Z,9.00
2018-08-07T05:50:15.826Z,13.43
2018-08-07T05:52:45.001Z,10.77
2018-08-07T05:55:14.269Z,12.80
2018-08-07T05:57:44.449Z,9.33
2018-08-07T06:00:21.024Z,11.70
2018-08-07T06:02:50.999Z,10.57
2018-08-07T06:05:20.537Z,9.77
2018-08-07T06:07:50.180Z,10.63
2018-08-07T06:10:19.348Z,10.47
2018-08-07T06:12:48.552Z,10.53
2018-08-07T06:15:18.444Z,13.07
2018-08-07T06:17:48.805Z,8.80
2018-08-07T06:20:17.900Z,8.70
2018-08-07T06:22:47.329Z,8.87
2018-08-07T06:25:16.506Z,8.77
2018-08-07T06:27:45.410Z,11.00
2018-08-07T06:30:19.721Z,10.43
2018-08-07T06:32:49.633Z,11.33
2018-08-07T06:35:20.106Z,12.90
2018-08-07T06:37:49.378Z,10.47
2018-08-07T06:40:18.558Z,13.73
2018-08-07T06:42:47.761Z,12.57
2018-08-07T06:45:17.845Z,16.87
2018-08-07T06:47:47.098Z,17.10
2018-08-07T06:50:17.894Z,20.47
2018-08-07T06:52:47.820Z,15.77
2018-08-07T06:55:17.460Z,12.83
2018-08-07T06:57:46.759Z,11.27
2018-08-07T07:00:20.426Z,12.70
2018-08-07T07:02:49.695Z,9.60
2018-08-07T07:05:19.663Z,11.67
2018-08-07T07:07:49.181Z,10.57
2018-08-07T07:10:18.870Z,8.03
2018-08-07T07:12:48.364Z,7.27
2018-08-07T07:15:18.054Z,8.67
2018-08-07T07:17:48.186Z,8.50
2018-08-07T07:20:18.546Z,13.17
2018-08-07T07:22:48.960Z,8.00
2018-08-07T07:25:17.877Z,8.83
2018-08-07T07:27:47.022Z,8.53
2018-08-07T07:30:19.525Z,6.93
2018-08-07T07:32:50.150Z,8.97
2018-08-07T07:35:19.661Z,7.60
2018-08-07T07:37:49.143Z,6.50
2018-08-07T07:40:19.396Z,6.70
2018-08-07T07:42:48.705Z,7.70
2018-08-07T07:45:19.711Z,6.73
2018-08-07T07:47:49.484Z,7.83
2018-08-07T07:50:20.293Z,7.87
2018-08-07T07:52:49.628Z,6.63
2018-08-07T07:55:19.603Z,10.10
2018-08-07T08:00:26.264Z,10.30
2018-08-07T08:02:55.423Z,6.60
2018-08-07T08:05:26.013Z,6.17
2018-08-07T08:07:55.674Z,7.60
2018-08-07T08:10:25.099Z,9.53
2018-08-07T08:12:54.237Z,9.30
2018-08-07T08:15:23.381Z,8.27
2018-08-07T08:17:52.682Z,8.83
2018-08-07T08:20:24.337Z,9.17
2018-08-07T08:22:54.792Z,6.03
2018-08-07T08:25:24.055Z,5.30
2018-08-07T08:27:53.317Z,7.22
2018-08-07T08:30:23.047Z,7.03
2018-08-07T08:32:52.203Z,9.80
2018-08-07T08:35:21.467Z,6.05
2018-08-07T08:37:50.682Z,7.70
2018-08-07T08:40:23.198Z,4.62
2018-08-07T08:42:52.507Z,5.42
2018-08-07T08:45:24.728Z,5.28
2018-08-07T08:47:57.325Z,6.03
2018-08-07T08:50:26.547Z,5.92
2018-08-07T08:52:55.705Z,7.62
2018-08-07T08:55:25.016Z,4.55
2018-08-07T08:57:54.212Z,5.03
2018-08-07T09:00:26.666Z,6.30
2018-08-07T09:02:56.921Z,6.60
2018-08-07T09:05:26.453Z,4.40
2018-08-07T09:07:55.616Z,6.83
2018-08-07T09:10:26.751Z,5.22
2018-08-07T09:12:56.568Z,3.70
2018-08-07T09:15:25.879Z,5.72
2018-08-07T09:17:55.114Z,3.52
2018-08-07T09:20:26.744Z,3.80
2018-08-07T09:22:56.232Z,5.67
2018-08-07T09:25:27.694Z,5.28
2018-08-07T09:27:56.804Z,3.72
2018-08-07T09:30:27.504Z,3.65
2018-08-07T09:32:57.442Z,5.40
2018-08-07T09:35:26.943Z,10.00
2018-08-07T09:37:57.136Z,11.73
2018-08-07T09:40:26.382Z,4.70
2018-08-07T09:42:57.370Z,4.22
2018-08-07T09:45:29.845Z,3.90
2018-08-07T09:47:59.971Z,5.40
2018-08-07T09:50:29.821Z,7.40
2018-08-07T09:52:58.999Z,4.62
2018-08-07T09:55:28.500Z,6.37
2018-08-07T09:57:57.652Z,5.20
2018-08-07T10:01:33.963Z,5.05
2018-08-07T10:04:03.290Z,6.08
2018-08-07T10:06:32.556Z,3.40
2018-08-07T10:09:01.893Z,5.35
2018-08-07T10:11:31.157Z,3.35
2018-08-07T10:14:00.387Z,3.12
2018-08-07T10:16:29.571Z,3.83
2018-08-07T10:18:59.379Z,3.35
2018-08-07T10:21:28.611Z,4.10
2018-08-07T10:23:58.523Z,3.80
2018-08-07T10:26:27.993Z,3.92
2018-08-07T10:28:57.217Z,4.65
2018-08-07T10:31:26.469Z,4.65
2018-08-07T10:33:55.737Z,3.42
2018-08-07T10:36:25.056Z,3.60
2018-08-07T10:38:54.380Z,3.95
2018-08-07T10:41:23.769Z,6.35
2018-08-07T10:43:53.020Z,8.60
2018-08-07T10:46:22.233Z,6.10
2018-08-07T10:48:52.232Z,5.15
2018-08-07T10:51:22.295Z,3.72
2018-08-07T10:53:51.523Z,5.50
2018-08-07T10:56:20.724Z,6.55
2018-08-07T10:58:49.530Z,4.50
2018-08-07T11:01:18.371Z,4.72
2018-08-07T11:03:47.424Z,3.33
2018-08-07T11:06:17.241Z,3.40
2018-08-07T11:08:46.550Z,3.90
2018-08-07T11:11:15.940Z,3.02
2018-08-07T11:13:45.288Z,3.47
2018-08-07T11:16:14.488Z,5.05
2018-08-07T11:18:43.775Z,3.33
2018-08-07T11:21:12.947Z,3.87
2018-08-07T11:23:42.136Z,3.75
2018-08-07T11:26:11.437Z,3.42
2018-08-07T11:28:40.681Z,3.20
2018-08-07T11:31:09.965Z,3.47
2018-08-07T11:33:39.345Z,3.20
2018-08-07T11:36:08.819Z,3.15
2018-08-07T11:38:38.089Z,3.00
2018-08-07T11:41:07.856Z,3.47
2018-08-07T11:43:37.079Z,4.80
2018-08-07T11:46:07.113Z,4.92
2018-08-07T11:48:36.392Z,3.72
2018-08-07T11:51:05.643Z,3.83
2018-08-07T11:53:34.823Z,4.58
2018-08-07T11:56:03.989Z,3.30
2018-08-07T11:58:33.330Z,5.70
2018-08-07T12:01:02.746Z,3.30
2018-08-07T12:03:32.803Z,7.80
2018-08-07T12:06:02.069Z,4.58
2018-08-07T12:08:31.156Z,3.37
2018-08-07T12:11:00.271Z,3.77
2018-08-07T12:13:29.773Z,4.42
2018-08-07T12:15:58.894Z,6.10
2018-08-07T12:18:28.052Z,4.47
2018-08-07T12:20:57.389Z,3.52
2018-08-07T12:23:26.591Z,3.50
2018-08-07T12:25:55.675Z,3.85
2018-08-07T12:28:24.938Z,3.58
2018-08-07T12:30:54.229Z,4.37
2018-08-07T12:33:23.397Z,3.45
2018-08-07T12:35:52.634Z,5.28
2018-08-07T12:38:21.762Z,4.53
2018-08-07T12:40:50.956Z,5.08
2018-08-07T12:43:20.227Z,4.37
2018-08-07T12:45:49.538Z,3.67
2018-08-07T12:48:18.730Z,3.87
2018-08-07T12:50:47.970Z,4.75
2018-08-07T12:53:17.218Z,3.75
2018-08-07T12:55:46.840Z,3.80
2018-08-07T12:58:16.961Z,2.80
2018-08-07T13:01:19.888Z,3.55
2018-08-07T13:03:49.078Z,2.92
2018-08-07T13:06:18.244Z,2.75
2018-08-07T13:08:47.657Z,3.65
2018-08-07T13:11:16.979Z,3.83
2018-08-07T13:13:46.143Z,3.15
2018-08-07T13:16:15.650Z,3.05
2018-08-07T13:18:45.136Z,2.85
2018-08-07T13:21:14.366Z,3.40
2018-08-07T13:23:43.624Z,3.10
2018-08-07T13:26:12.879Z,3.37
2018-08-07T13:28:42.047Z,3.40
2018-08-07T13:31:11.166Z,7.55
2018-08-07T13:33:40.311Z,3.37
2018-08-07T13:36:09.431Z,3.00
2018-08-07T13:38:38.503Z,6.30
2018-08-07T13:41:07.604Z,5.03
2018-08-07T13:43:36.696Z,3.30
2018-08-07T13:46:05.996Z,3.22
2018-08-07T13:48:35.249Z,3.20
2018-08-07T13:51:04.364Z,4.72
2018-08-07T13:53:33.732Z,4.83
2018-08-07T13:56:03.025Z,3.00
2018-08-07T13:58:32.033Z,3.27
2018-08-07T14:01:01.273Z,3.75
2018-08-07T14:03:30.647Z,3.42
2018-08-07T14:05:59.886Z,3.20
2018-08-07T14:08:28.979Z,3.45
2018-08-07T14:10:58.194Z,5.78
2018-08-07T14:13:27.626Z,3.15
2018-08-07T14:15:56.703Z,3.30
2018-08-07T14:18:26.074Z,5.20
2018-08-07T14:20:55.946Z,4.70
2018-08-07T14:23:25.324Z,5.78
2018-08-07T14:25:54.413Z,4.35
2018-08-07T14:28:23.730Z,3.90
2018-08-07T14:30:53.150Z,5.15
2018-08-07T14:33:22.345Z,4.25
2018-08-07T14:35:51.543Z,5.20
2018-08-07T14:38:20.669Z,3.65
2018-08-07T14:40:49.901Z,4.72
2018-08-07T14:43:19.260Z,6.75
2018-08-07T14:45:49.243Z,5.53
2018-08-07T14:48:18.523Z,40.23
2018-08-07T14:50:47.866Z,8.20
2018-08-07T14:53:17.341Z,3.30
2018-08-07T14:55:46.535Z,3.42
2018-08-07T14:58:15.733Z,5.00
2018-08-07T15:00:45.236Z,10.95
2018-08-07T15:03:14.547Z,5.62
2018-08-07T15:05:43.736Z,3.60
2018-08-07T15:08:13.361Z,5.03
2018-08-07T15:10:42.441Z,4.55
2018-08-07T15:13:11.636Z,7.58
2018-08-07T15:15:41.481Z,9.08
2018-08-07T15:18:10.781Z,15.18
2018-08-07T15:20:39.941Z,5.28
2018-08-07T15:23:09.192Z,3.50
2018-08-07T15:25:38.463Z,3.90
2018-08-07T15:28:07.624Z,9.05
2018-08-07T15:30:36.860Z,6.30
2018-08-07T15:33:06.351Z,3.75
2018-08-07T15:35:35.420Z,3.30
2018-08-07T15:38:04.545Z,3.35
2018-08-07T15:40:33.865Z,6.12
2018-08-07T15:43:03.040Z,6.15
2018-08-07T15:45:32.270Z,3.83
2018-08-07T15:48:07.897Z,5.10
2018-08-07T15:50:37.182Z,5.50
2018-08-07T15:53:06.632Z,3.20
2018-08-07T15:55:36.388Z,6.08
2018-08-07T15:58:06.355Z,6.37
2018-08-07T16:00:36.476Z,3.77
2018-08-07T16:03:06.450Z,3.65
2018-08-07T16:05:35.883Z,3.72
2018-08-07T16:08:05.121Z,4.53
2018-08-07T16:10:34.316Z,4.83
2018-08-07T16:13:03.777Z,3.47
2018-08-07T16:15:33.223Z,4.60
2018-08-07T16:18:02.616Z,5.87
2018-08-07T16:20:32.494Z,3.40
2018-08-07T16:23:01.805Z,3.72
2018-08-07T16:25:31.006Z,3.52
2018-08-07T16:28:00.666Z,4.47
2018-08-07T16:30:30.066Z,6.87
2018-08-07T16:32:59.311Z,4.03
2018-08-07T16:35:28.552Z,3.90
2018-08-07T16:37:57.672Z,3.77
2018-08-07T16:40:26.945Z,3.60
2018-08-07T16:42:56.105Z,3.27
2018-08-07T16:45:25.862Z,4.20
2018-08-07T16:47:55.263Z,3.47
2018-08-07T16:50:28.311Z,4.25
2018-08-07T16:52:58.525Z,3.98
2018-08-07T16:55:29.348Z,5.87
2018-08-07T16:57:58.650Z,3.70
2018-08-07T17:00:28.534Z,5.55
2018-08-07T17:03:04.454Z,6.70
2018-08-07T17:05:34.280Z,5.45
2018-08-07T17:08:03.453Z,4.60
2018-08-07T17:10:32.587Z,5.78
2018-08-07T17:13:01.700Z,5.20
2018-08-07T17:15:30.841Z,4.78
2018-08-07T17:18:00.084Z,4.00
2018-08-07T17:20:29.472Z,4.50
2018-08-07T17:22:58.626Z,4.22
2018-08-07T17:25:27.773Z,3.70
2018-08-07T17:27:57.126Z,3.10
2018-08-07T17:30:28.046Z,3.75
2018-08-07T17:32:57.485Z,3.67
2018-08-07T17:35:27.660Z,4.00
2018-08-07T17:37:58.766Z,4.95
2018-08-07T17:40:28.780Z,5.25
2018-08-07T17:42:58.388Z,3.37
2018-08-07T17:45:27.627Z,3.17
2018-08-07T17:47:56.754Z,3.33
2018-08-07T17:50:26.883Z,4.25
2018-08-07T17:52:58.094Z,3.70
2018-08-07T17:55:27.377Z,3.17
2018-08-07T17:57:57.819Z,3.85
2018-08-07T18:00:27.501Z,8.08
2018-08-07T18:02:56.968Z,5.50
2018-08-07T18:05:26.131Z,5.33
2018-08-07T18:07:56.374Z,3.80
2018-08-07T18:10:25.730Z,3.33
2018-08-07T18:12:54.936Z,3.30
2018-08-07T18:15:24.390Z,3.12
2018-08-07T18:17:54.451Z,5.80
2018-08-07T18:20:25.123Z,5.08
2018-08-07T18:22:54.471Z,3.98
2018-08-07T18:25:23.907Z,3.70
2018-08-07T18:27:53.163Z,4.00
2018-08-07T18:30:23.912Z,5.90
2018-08-07T18:32:53.605Z,3.85
2018-08-07T18:35:25.965Z,5.78
2018-08-07T18:37:55.193Z,6.90
2018-08-07T18:40:25.243Z,4.37
2018-08-07T18:42:54.607Z,6.42
2018-08-07T18:45:23.792Z,6.22
2018-08-07T18:47:53.070Z,4.42
2018-08-07T18:50:23.453Z,5.70
2018-08-07T18:52:52.886Z,3.72
2018-08-07T18:55:22.155Z,5.30
2018-08-07T18:57:51.863Z,4.47
2018-08-07T19:00:22.838Z,7.17
2018-08-07T19:02:52.149Z,7.87
2018-08-07T19:05:22.698Z,4.87
2018-08-07T19:07:52.000Z,3.87
2018-08-07T19:10:21.243Z,5.75
2018-08-07T19:12:50.676Z,4.50
2018-08-07T19:15:20.698Z,5.50
2018-08-07T19:17:49.915Z,5.22
2018-08-07T19:20:20.462Z,4.65
2018-08-07T19:22:49.837Z,5.08
2018-08-07T19:25:20.086Z,3.35
2018-08-07T19:27:49.773Z,5.53
2018-08-07T19:30:21.765Z,3.40
2018-08-07T19:32:51.469Z,4.47
2018-08-07T19:35:20.900Z,5.37
2018-08-07T19:37:50.203Z,6.28
2018-08-07T19:40:20.304Z,5.65
2018-08-07T19:42:50.493Z,6.33
2018-08-07T19:45:19.790Z,4.78
2018-08-07T19:47:48.986Z,6.28
2018-08-07T19:50:20.020Z,3.70
2018-08-07T19:52:50.536Z,6.20
2018-08-07T19:55:21.125Z,8.08
2018-08-07T19:57:50.414Z,8.88
2018-08-07T20:00:22.398Z,6.50
2018-08-07T20:02:52.058Z,5.72
2018-08-07T20:05:22.507Z,4.08
2018-08-07T20:07:52.929Z,7.55
2018-08-07T20:10:22.569Z,7.30
2018-08-07T20:12:52.567Z,6.70
2018-08-07T20:15:25.723Z,6.97
2018-08-07T20:17:56.864Z,6.55
2018-08-07T20:20:26.706Z,7.10
2018-08-07T20:22:56.408Z,6.10
2018-08-07T20:25:26.207Z,4.90
2018-08-07T20:27:55.411Z,4.87
2018-08-07T20:30:25.523Z,6.25
2018-08-07T20:32:57.049Z,8.43
2018-08-07T20:35:26.326Z,6.70
2018-08-07T20:37:55.741Z,8.53
2018-08-07T20:40:26.928Z,5.33
2018-08-07T20:42:57.476Z,7.12
2018-08-07T20:45:30.465Z,7.62
2018-08-07T20:47:59.651Z,8.88
2018-08-07T20:50:28.904Z,6.00
2018-08-07T20:52:58.119Z,6.40
2018-08-07T20:55:27.899Z,8.53
2018-08-07T20:57:57.293Z,12.82
2018-08-07T21:00:27.872Z,8.45
2018-08-07T21:02:57.337Z,9.20
2018-08-07T21:05:26.751Z,10.28
2018-08-07T21:07:56.055Z,5.17
2018-08-07T21:10:26.959Z,7.50
2018-08-07T21:12:56.393Z,8.00
2018-08-07T21:15:25.998Z,9.48
2018-08-07T21:17:55.229Z,6.75
2018-08-07T21:20:25.097Z,6.90
2018-08-07T21:22:54.436Z,12.10
2018-08-07T21:25:24.592Z,6.28
2018-08-07T21:27:55.971Z,7.25
2018-08-07T21:30:26.972Z,8.40
2018-08-07T21:32:56.147Z,7.00
2018-08-07T21:35:25.349Z,9.35
2018-08-07T21:37:54.532Z,4.58
2018-08-07T21:40:24.495Z,7.67
2018-08-07T21:42:54.781Z,7.95
2018-08-07T21:45:23.913Z,5.37
2018-08-07T21:47:53.116Z,8.30
2018-08-07T21:50:23.755Z,9.00
2018-08-07T21:52:52.880Z,6.92
2018-08-07T21:55:22.157Z,8.58
2018-08-07T21:57:51.293Z,7.30
2018-08-07T22:00:33.219Z,136.68
2018-08-07T22:03:02.611Z,147.73
2018-08-07T22:05:32.577Z,169.83
2018-08-07T22:08:01.834Z,118.60
2018-08-07T22:10:31.190Z,42.60
2018-08-07T22:13:00.973Z,37.70
2018-08-07T22:15:30.283Z,34.70
2018-08-07T22:17:59.614Z,33.83
2018-08-07T22:20:28.939Z,32.37
2018-08-07T22:23:05.012Z,24.90
2018-08-07T22:25:34.458Z,20.20
2018-08-07T22:28:03.813Z,24.80
2018-08-07T22:30:33.197Z,19.07
2018-08-07T22:33:02.540Z,23.23
2018-08-07T22:35:31.759Z,21.67
2018-08-07T22:38:01.204Z,16.63
2018-08-07T22:40:31.049Z,19.43
2018-08-07T22:43:00.379Z,18.60
2018-08-07T22:45:29.608Z,18.90
2018-08-07T22:47:58.995Z,21.20
2018-08-07T22:50:28.048Z,17.97
2018-08-07T22:52:57.230Z,20.07
2018-08-07T22:55:26.401Z,17.77
2018-08-07T22:57:55.533Z,16.63
2018-08-07T23:00:24.995Z,16.23
2018-08-07T23:02:54.131Z,17.03
2018-08-07T23:05:23.446Z,19.17
2018-08-07T23:07:52.817Z,15.67
2018-08-07T23:10:22.565Z,18.63
2018-08-07T23:12:51.744Z,18.33
2018-08-07T23:15:21.731Z,17.07
2018-08-07T23:17:51.027Z,14.00
2018-08-07T23:20:22.097Z,19.50
2018-08-07T23:22:55.465Z,15.87
2018-08-07T23:25:24.572Z,17.53
2018-08-07T23:27:53.799Z,14.90
2018-08-07T23:30:23.239Z,16.03
2018-08-07T23:32:52.934Z,15.83
2018-08-07T23:35:22.112Z,15.13
2018-08-07T23:37:51.460Z,16.93
2018-08-07T23:40:21.219Z,17.47
2018-08-07T23:42:50.314Z,16.40
2018-08-07T23:45:19.670Z,15.50
2018-08-07T23:47:48.929Z,15.27
2018-08-07T23:50:18.165Z,15.50
2018-08-07T23:52:48.563Z,15.03
2018-08-07T23:55:17.793Z,16.00
2018-08-07T23:57:47.047Z,16.97
